createdAt,value
2019-01-08T00:00:37.125Z,87.68
2019-01-08T00:01:36.333Z,88.09
2019-01-08T00:02:36.454Z,86.22
2019-01-08T00:03:36.309Z,86.12
2019-01-08T00:04:36.326Z,86.64
2019-01-08T00:05:36.286Z,86.43
2019-01-08T00:06:36.345Z,85.71
2019-01-08T00:07:36.266Z,87.05
2019-01-08T00:08:37.068Z,87.16
2019-01-08T00:09:36.256Z,86.64
2019-01-08T00:10:36.342Z,86.43
2019-01-08T00:11:36.218Z,87.26
2019-01-08T00:12:36.558Z,87.47
2019-01-08T00:13:36.201Z,87.16
2019-01-08T00:14:36.319Z,87.16
2019-01-08T00:15:36.648Z,87.09
2019-01-08T00:16:36.165Z,86.54
2019-01-08T00:17:36.382Z,87.82
2019-01-08T00:18:36.142Z,87.05
2019-01-08T00:19:37.183Z,86.57
2019-01-08T00:20:36.112Z,88.09
2019-01-08T00:21:36.150Z,87.88
2019-01-08T00:22:36.092Z,87.78
2019-01-08T00:23:36.102Z,87.78
2019-01-08T00:24:36.083Z,87.68
2019-01-08T00:25:36.323Z,88.30
2019-01-08T00:26:36.723Z,88.13
2019-01-08T00:27:36.039Z,88.61
2019-01-08T00:28:43.004Z,88.13
2019-01-08T00:29:37.027Z,88.02
2019-01-08T00:30:36.164Z,88.02
2019-01-08T00:31:35.995Z,87.71
2019-01-08T00:32:35.965Z,87.26
2019-01-08T00:33:36.265Z,87.09
2019-01-08T00:34:35.979Z,88.44
2019-01-08T00:35:36.017Z,88.96
2019-01-08T00:36:35.940Z,88.02
2019-01-08T00:37:35.930Z,87.82
2019-01-08T00:38:35.908Z,87.99
2019-01-08T00:39:37.558Z,88.51
2019-01-08T00:40:35.892Z,87.68
2019-01-08T00:41:36.210Z,88.65
2019-01-08T00:42:35.870Z,88.23
2019-01-08T00:43:35.852Z,87.51
2019-01-08T00:44:35.873Z,88.65
2019-01-08T00:45:35.834Z,88.82
2019-01-08T00:46:35.867Z,88.92
2019-01-08T00:47:35.812Z,88.96
2019-01-08T00:48:35.801Z,89.37
2019-01-08T00:49:35.802Z,89.58
2019-01-08T00:50:35.833Z,90.72
2019-01-08T00:51:35.763Z,90.52
2019-01-08T00:52:36.265Z,89.27
2019-01-08T00:53:35.743Z,89.79
2019-01-08T00:54:35.726Z,91.03
2019-01-08T00:55:35.775Z,91.03
2019-01-08T00:56:35.707Z,90.52
2019-01-08T00:57:36.106Z,91.60
2019-01-08T00:58:35.753Z,91.70
2019-01-08T00:59:35.857Z,92.11
2019-01-08T01:00:35.666Z,92.11
2019-01-08T01:01:35.677Z,92.53
2019-01-08T01:02:35.637Z,93.05
2019-01-08T01:03:36.320Z,92.32
2019-01-08T01:04:35.628Z,92.11
2019-01-08T01:05:35.608Z,92.53
2019-01-08T01:06:35.601Z,92.32
2019-01-08T01:07:35.778Z,92.32
2019-01-08T01:08:35.569Z,92.32
2019-01-08T01:09:35.661Z,91.28
2019-01-08T01:10:35.549Z,91.60
2019-01-08T01:11:35.540Z,91.39
2019-01-08T01:12:35.532Z,91.49
2019-01-08T01:13:35.994Z,91.39
2019-01-08T01:14:35.524Z,91.14
2019-01-08T01:15:35.723Z,91.24
2019-01-08T01:16:35.484Z,90.41
2019-01-08T01:17:35.472Z,91.18
2019-01-08T01:18:35.822Z,91.55
2019-01-08T01:19:35.484Z,90.62
2019-01-08T01:20:35.557Z,91.28
2019-01-08T01:21:35.424Z,92.07
2019-01-08T01:22:35.416Z,91.86
2019-01-08T01:23:35.406Z,91.28
2019-01-08T01:24:36.047Z,91.24
2019-01-08T01:25:35.402Z,91.45
2019-01-08T01:26:35.778Z,90.83
2019-01-08T01:27:35.356Z,91.14
2019-01-08T01:28:35.498Z,91.45
2019-01-08T01:29:35.336Z,91.24
2019-01-08T01:30:36.298Z,91.14
2019-01-08T01:31:35.316Z,91.14
2019-01-08T01:32:38.019Z,92.07
2019-01-08T01:33:35.348Z,91.55
2019-01-08T01:34:35.281Z,91.55
2019-01-08T01:35:36.140Z,90.93
2019-01-08T01:36:35.250Z,91.14
2019-01-08T01:37:35.820Z,92.18
2019-01-08T01:38:35.231Z,92.49
2019-01-08T01:39:35.222Z,92.69
2019-01-08T01:40:35.982Z,93.78
2019-01-08T01:41:35.205Z,93.47
2019-01-08T01:42:35.662Z,93.78
2019-01-08T01:43:35.174Z,93.78
2019-01-08T01:44:35.167Z,93.57
2019-01-08T01:45:35.165Z,93.99
2019-01-08T01:46:36.133Z,93.57
2019-01-08T01:47:35.136Z,93.88
2019-01-08T01:48:35.860Z,93.78
2019-01-08T01:49:35.108Z,94.09
2019-01-08T01:50:35.135Z,93.47
2019-01-08T01:51:35.085Z,93.78
2019-01-08T01:52:35.335Z,93.47
2019-01-08T01:53:35.056Z,92.94
2019-01-08T01:54:36.077Z,93.26
2019-01-08T01:55:35.040Z,93.99
2019-01-08T01:56:35.041Z,93.88
2019-01-08T01:57:35.168Z,93.26
2019-01-08T01:58:35.012Z,93.57
2019-01-08T01:59:35.019Z,93.37
2019-01-08T02:00:34.980Z,93.62
2019-01-08T02:01:34.990Z,93.72
2019-01-08T02:02:36.019Z,93.88
2019-01-08T02:03:34.951Z,93.26
2019-01-08T02:04:35.760Z,93.88
2019-01-08T02:05:34.921Z,93.37
2019-01-08T02:06:36.560Z,92.53
2019-01-08T02:07:34.904Z,92.63
2019-01-08T02:08:35.224Z,93.99
2019-01-08T02:09:34.883Z,93.37
2019-01-08T02:10:35.960Z,93.26
2019-01-08T02:11:34.874Z,93.47
2019-01-08T02:12:34.845Z,93.37
2019-01-08T02:13:34.837Z,92.63
2019-01-08T02:14:35.428Z,93.16
2019-01-08T02:15:34.814Z,93.05
2019-01-08T02:16:35.216Z,93.47
2019-01-08T02:17:34.789Z,92.74
2019-01-08T02:18:34.775Z,93.26
2019-01-08T02:19:34.767Z,92.43
2019-01-08T02:20:35.633Z,93.47
2019-01-08T02:21:34.757Z,93.68
2019-01-08T02:22:35.370Z,92.84
2019-01-08T02:23:34.730Z,92.43
2019-01-08T02:24:35.108Z,92.43
2019-01-08T02:25:34.698Z,92.53
2019-01-08T02:26:34.897Z,92.53
2019-01-08T02:27:34.686Z,92.43
2019-01-08T02:28:34.690Z,92.63
2019-01-08T02:29:34.954Z,92.53
2019-01-08T02:30:34.645Z,92.32
2019-01-08T02:31:35.754Z,92.94
2019-01-08T02:32:34.625Z,92.74
2019-01-08T02:33:41.580Z,92.74
2019-01-08T02:34:34.592Z,92.94
2019-01-08T02:35:34.584Z,92.84
2019-01-08T02:36:35.583Z,92.53
2019-01-08T02:37:34.568Z,91.91
2019-01-08T02:38:35.274Z,92.53
2019-01-08T02:39:34.545Z,92.43
2019-01-08T02:40:34.995Z,92.01
2019-01-08T02:41:34.597Z,92.43
2019-01-08T02:42:34.734Z,92.53
2019-01-08T02:43:34.499Z,92.22
2019-01-08T02:44:36.617Z,92.53
2019-01-08T02:45:34.466Z,92.53
2019-01-08T02:46:34.663Z,92.63
2019-01-08T02:47:34.456Z,92.74
2019-01-08T02:48:35.952Z,92.74
2019-01-08T02:49:34.430Z,92.84
2019-01-08T02:50:34.669Z,93.47
2019-01-08T02:51:34.430Z,92.88
2019-01-08T02:52:34.388Z,93.10
2019-01-08T02:53:34.380Z,93.05
2019-01-08T02:54:35.161Z,92.57
2019-01-08T02:55:34.360Z,93.16
2019-01-08T02:56:34.941Z,93.37
2019-01-08T02:57:34.362Z,92.88
2019-01-08T02:58:34.322Z,93.10
2019-01-08T02:59:34.985Z,92.84
2019-01-08T03:00:34.302Z,91.91
2019-01-08T03:01:34.772Z,92.63
2019-01-08T03:02:34.275Z,92.43
2019-01-08T03:03:34.267Z,91.91
2019-01-08T03:04:34.833Z,92.47
2019-01-08T03:05:34.246Z,92.22
2019-01-08T03:06:34.570Z,92.47
2019-01-08T03:07:34.235Z,91.70
2019-01-08T03:08:34.205Z,91.80
2019-01-08T03:09:34.199Z,91.08
2019-01-08T03:10:34.246Z,91.33
2019-01-08T03:11:34.179Z,91.28
2019-01-08T03:12:34.833Z,91.08
2019-01-08T03:13:34.158Z,91.64
2019-01-08T03:14:34.139Z,92.36
2019-01-08T03:15:34.130Z,92.57
2019-01-08T03:16:34.240Z,91.18
2019-01-08T03:17:34.119Z,91.53
2019-01-08T03:18:34.977Z,92.32
2019-01-08T03:19:34.090Z,92.43
2019-01-08T03:20:34.733Z,91.08
2019-01-08T03:21:34.062Z,91.28
2019-01-08T03:22:34.506Z,91.49
2019-01-08T03:23:34.041Z,91.08
2019-01-08T03:24:34.182Z,91.80
2019-01-08T03:25:34.562Z,91.60
2019-01-08T03:26:34.001Z,91.08
2019-01-08T03:27:34.333Z,90.35
2019-01-08T03:28:33.983Z,90.52
2019-01-08T03:29:35.026Z,91.03
2019-01-08T03:30:33.968Z,90.52
2019-01-08T03:31:33.945Z,90.93
2019-01-08T03:32:34.175Z,91.08
2019-01-08T03:33:33.925Z,91.39
2019-01-08T03:34:33.975Z,91.70
2019-01-08T03:35:33.911Z,91.08
2019-01-08T03:36:33.890Z,91.49
2019-01-08T03:37:33.876Z,91.49
2019-01-08T03:38:34.387Z,91.60
2019-01-08T03:39:33.859Z,91.70
2019-01-08T03:40:34.068Z,91.35
2019-01-08T03:41:33.840Z,91.49
2019-01-08T03:42:33.818Z,92.49
2019-01-08T03:43:33.831Z,92.49
2019-01-08T03:44:33.849Z,92.01
2019-01-08T03:45:33.789Z,91.49
2019-01-08T03:46:34.279Z,91.24
2019-01-08T03:47:33.771Z,91.45
2019-01-08T03:48:34.061Z,91.24
2019-01-08T03:49:33.745Z,91.97
2019-01-08T03:50:34.750Z,91.14
2019-01-08T03:51:33.722Z,91.91
2019-01-08T03:52:34.483Z,91.66
2019-01-08T03:53:33.713Z,91.76
2019-01-08T03:54:34.222Z,92.01
2019-01-08T03:55:33.673Z,91.60
2019-01-08T03:56:34.963Z,91.03
2019-01-08T03:57:33.654Z,91.14
2019-01-08T03:58:33.654Z,91.24
2019-01-08T03:59:41.739Z,91.66
2019-01-08T04:00:34.615Z,91.55
2019-01-08T04:01:33.786Z,92.28
2019-01-08T04:02:33.596Z,92.07
2019-01-08T04:03:34.596Z,92.01
2019-01-08T04:04:33.585Z,92.43
2019-01-08T04:05:34.281Z,92.22
2019-01-08T04:06:33.553Z,93.16
2019-01-08T04:07:34.012Z,92.49
2019-01-08T04:08:33.540Z,92.63
2019-01-08T04:09:33.738Z,93.37
2019-01-08T04:10:34.112Z,93.88
2019-01-08T04:11:33.495Z,93.57
2019-01-08T04:12:33.842Z,93.37
2019-01-08T04:13:33.491Z,93.37
2019-01-08T04:14:33.570Z,93.78
2019-01-08T04:15:34.963Z,94.05
2019-01-08T04:16:33.433Z,94.61
2019-01-08T04:17:33.684Z,94.71
2019-01-08T04:18:33.422Z,94.51
2019-01-08T04:19:41.586Z,94.20
2019-01-08T04:20:33.395Z,94.30
2019-01-08T04:21:33.383Z,95.03
2019-01-08T04:22:33.520Z,95.96
2019-01-08T04:23:33.374Z,95.54
2019-01-08T04:24:34.261Z,95.44
2019-01-08T04:25:33.334Z,95.44
2019-01-08T04:26:33.324Z,94.86
2019-01-08T04:27:33.305Z,95.38
2019-01-08T04:28:33.775Z,94.96
2019-01-08T04:29:33.286Z,95.86
2019-01-08T04:30:33.460Z,95.48
2019-01-08T04:31:33.268Z,94.96
2019-01-08T04:32:33.258Z,95.03
2019-01-08T04:33:33.617Z,95.38
2019-01-08T04:34:33.229Z,94.92
2019-01-08T04:35:34.316Z,95.07
2019-01-08T04:36:33.211Z,95.59
2019-01-08T04:37:33.205Z,95.65
2019-01-08T04:38:33.205Z,95.69
2019-01-08T04:39:33.780Z,95.48
2019-01-08T04:40:33.160Z,95.48
2019-01-08T04:41:33.510Z,95.79
2019-01-08T04:42:33.141Z,96.21
2019-01-08T04:43:33.142Z,95.54
2019-01-08T04:44:33.623Z,95.17
2019-01-08T04:45:33.103Z,95.69
2019-01-08T04:46:33.353Z,95.86
2019-01-08T04:47:33.082Z,95.79
2019-01-08T04:48:33.085Z,95.59
2019-01-08T04:49:33.054Z,95.69
2019-01-08T04:50:33.846Z,95.48
2019-01-08T04:51:33.038Z,95.79
2019-01-08T04:52:33.565Z,95.79
2019-01-08T04:53:33.026Z,95.90
2019-01-08T04:54:33.006Z,95.69
2019-01-08T04:55:33.669Z,95.90
2019-01-08T04:56:32.978Z,95.79
2019-01-08T04:57:33.397Z,95.69
2019-01-08T04:58:32.971Z,95.69
2019-01-08T04:59:33.125Z,95.69
2019-01-08T05:00:32.939Z,95.53
2019-01-08T05:01:33.871Z,96.15
2019-01-08T05:02:32.908Z,96.11
2019-01-08T05:03:33.660Z,95.84
2019-01-08T05:04:32.892Z,96.04
2019-01-08T05:05:32.883Z,96.15
2019-01-08T05:06:33.706Z,96.15
2019-01-08T05:07:32.853Z,96.04
2019-01-08T05:08:37.592Z,96.04
2019-01-08T05:09:32.832Z,96.25
2019-01-08T05:10:33.182Z,96.04
2019-01-08T05:11:32.802Z,96.04
2019-01-08T05:12:32.913Z,95.73
2019-01-08T05:13:32.803Z,96.47
2019-01-08T05:14:33.648Z,96.47
2019-01-08T05:15:32.764Z,96.25
2019-01-08T05:16:32.754Z,96.25
2019-01-08T05:17:33.761Z,96.47
2019-01-08T05:18:32.745Z,96.15
2019-01-08T05:19:34.510Z,96.15
2019-01-08T05:20:32.706Z,96.09
2019-01-08T05:21:33.227Z,97.03
2019-01-08T05:22:32.679Z,97.55
2019-01-08T05:23:33.017Z,97.34
2019-01-08T05:24:32.658Z,96.88
2019-01-08T05:25:33.703Z,96.92
2019-01-08T05:26:32.637Z,96.92
2019-01-08T05:27:32.630Z,96.92
2019-01-08T05:28:32.630Z,97.55
2019-01-08T05:29:33.179Z,97.03
2019-01-08T05:30:32.590Z,96.51
2019-01-08T05:31:32.914Z,96.82
2019-01-08T05:32:32.570Z,97.13
2019-01-08T05:33:32.561Z,97.03
2019-01-08T05:34:34.022Z,97.17
2019-01-08T05:35:32.533Z,96.51
2019-01-08T05:36:32.744Z,97.07
2019-01-08T05:37:32.512Z,97.03
2019-01-08T05:38:32.533Z,97.13
2019-01-08T05:39:32.484Z,96.09
2019-01-08T05:40:33.226Z,95.89
2019-01-08T05:41:32.468Z,96.51
2019-01-08T05:42:40.125Z,96.57
2019-01-08T05:43:32.447Z,96.15
2019-01-08T05:44:32.445Z,95.84
2019-01-08T05:45:33.067Z,96.47
2019-01-08T05:46:32.408Z,96.09
2019-01-08T05:47:32.797Z,96.30
2019-01-08T05:48:32.386Z,96.15
2019-01-08T05:49:32.577Z,95.84
2019-01-08T05:50:32.357Z,95.53
2019-01-08T05:51:33.352Z,96.04
2019-01-08T05:52:32.338Z,95.73
2019-01-08T05:53:33.003Z,95.73
2019-01-08T05:54:32.328Z,96.47
2019-01-08T05:55:32.300Z,95.28
2019-01-08T05:56:32.293Z,95.59
2019-01-08T05:57:34.504Z,95.59
2019-01-08T05:58:32.271Z,95.48
2019-01-08T05:59:32.361Z,95.59
2019-01-08T06:00:32.235Z,96.00
2019-01-08T06:01:33.814Z,96.21
2019-01-08T06:02:33.405Z,96.00
2019-01-08T06:03:32.213Z,96.11
2019-01-08T06:04:33.114Z,95.79
2019-01-08T06:05:32.193Z,94.61
2019-01-08T06:06:32.183Z,94.82
2019-01-08T06:07:32.165Z,94.51
2019-01-08T06:08:32.515Z,94.51
2019-01-08T06:09:32.158Z,94.57
2019-01-08T06:10:32.245Z,94.67
2019-01-08T06:11:32.128Z,94.67
2019-01-08T06:12:32.108Z,94.67
2019-01-08T06:13:32.357Z,94.57
2019-01-08T06:14:32.100Z,94.36
2019-01-08T06:15:33.096Z,94.57
2019-01-08T06:16:32.069Z,94.78
2019-01-08T06:17:32.050Z,94.26
2019-01-08T06:18:32.039Z,94.36
2019-01-08T06:19:32.609Z,94.57
2019-01-08T06:20:32.019Z,93.53
2019-01-08T06:21:32.301Z,94.05
2019-01-08T06:22:32.025Z,94.46
2019-01-08T06:23:31.989Z,94.67
2019-01-08T06:24:31.992Z,95.29
2019-01-08T06:25:32.782Z,95.50
2019-01-08T06:26:31.941Z,95.61
2019-01-08T06:27:32.514Z,95.81
2019-01-08T06:28:31.923Z,95.61
2019-01-08T06:29:32.292Z,95.71
2019-01-08T06:30:31.894Z,95.61
2019-01-08T06:31:32.989Z,95.75
2019-01-08T06:32:31.883Z,95.71
2019-01-08T06:33:32.716Z,95.40
2019-01-08T06:34:32.124Z,95.40
2019-01-08T06:35:31.836Z,95.19
2019-01-08T06:36:32.825Z,95.40
2019-01-08T06:37:31.816Z,94.73
2019-01-08T06:38:32.552Z,94.53
2019-01-08T06:39:31.817Z,95.46
2019-01-08T06:40:31.778Z,95.09
2019-01-08T06:41:31.768Z,95.46
2019-01-08T06:42:32.031Z,95.56
2019-01-08T06:43:31.748Z,95.46
2019-01-08T06:44:32.817Z,95.56
2019-01-08T06:45:31.722Z,94.73
2019-01-08T06:46:31.820Z,95.56
2019-01-08T06:47:31.700Z,95.67
2019-01-08T06:48:32.241Z,95.77
2019-01-08T06:49:31.698Z,94.42
2019-01-08T06:50:31.970Z,93.59
2019-01-08T06:51:32.345Z,94.21
2019-01-08T06:52:31.642Z,94.21
2019-01-08T06:53:32.072Z,92.76
2019-01-08T06:54:31.646Z,93.28
2019-01-08T06:55:31.804Z,92.66
2019-01-08T06:56:31.603Z,93.02
2019-01-08T06:57:31.668Z,92.55
2019-01-08T06:58:31.578Z,92.20
2019-01-08T06:59:32.346Z,91.83
2019-01-08T07:00:33.377Z,91.31
2019-01-08T07:01:32.025Z,91.62
2019-01-08T07:02:31.535Z,91.78
2019-01-08T07:03:31.747Z,91.37
2019-01-08T07:04:31.528Z,92.35
2019-01-08T07:05:31.606Z,91.37
2019-01-08T07:06:31.486Z,90.89
2019-01-08T07:07:31.477Z,90.48
2019-01-08T07:08:31.584Z,91.06
2019-01-08T07:09:31.541Z,91.68
2019-01-08T07:10:32.339Z,91.68
2019-01-08T07:11:31.430Z,91.31
2019-01-08T07:12:32.074Z,91.83
2019-01-08T07:13:31.412Z,92.35
2019-01-08T07:14:31.850Z,92.45
2019-01-08T07:15:31.383Z,92.45
2019-01-08T07:16:31.532Z,89.50
2019-01-08T07:17:31.366Z,89.36
2019-01-08T07:18:31.354Z,88.84
2019-01-08T07:19:31.352Z,89.67
2019-01-08T07:20:32.002Z,87.90
2019-01-08T07:21:31.361Z,89.67
2019-01-08T07:22:31.745Z,88.48
2019-01-08T07:23:31.295Z,87.80
2019-01-08T07:24:31.296Z,87.55
2019-01-08T07:25:31.854Z,87.24
2019-01-08T07:26:31.255Z,87.66
2019-01-08T07:27:31.588Z,87.97
2019-01-08T07:28:31.236Z,87.97
2019-01-08T07:29:31.238Z,88.07
2019-01-08T07:30:31.217Z,87.76
2019-01-08T07:31:32.055Z,87.87
2019-01-08T07:32:31.188Z,87.87
2019-01-08T07:33:31.800Z,87.45
2019-01-08T07:34:31.343Z,87.55
2019-01-08T07:35:31.161Z,87.66
2019-01-08T07:36:31.152Z,86.93
2019-01-08T07:37:31.270Z,86.93
2019-01-08T07:38:31.120Z,87.93
2019-01-08T07:39:33.090Z,88.39
2019-01-08T07:40:31.101Z,85.79
2019-01-08T07:41:31.742Z,85.96
2019-01-08T07:42:31.086Z,86.07
2019-01-08T07:43:31.473Z,85.86
2019-01-08T07:44:31.212Z,86.07
2019-01-08T07:45:32.282Z,84.61
2019-01-08T07:46:31.033Z,84.41
2019-01-08T07:47:31.104Z,84.99
2019-01-08T07:48:31.014Z,85.03
2019-01-08T07:49:31.689Z,83.75
2019-01-08T07:50:31.011Z,83.54
2019-01-08T07:51:30.975Z,85.40
2019-01-08T07:52:30.965Z,83.54
2019-01-08T07:53:31.157Z,84.88
2019-01-08T07:54:30.946Z,83.75
2019-01-08T07:55:31.961Z,85.71
2019-01-08T07:56:30.920Z,85.71
2019-01-08T07:57:30.909Z,86.37
2019-01-08T07:58:31.012Z,85.75
2019-01-08T07:59:30.894Z,85.86
2019-01-08T08:00:31.790Z,84.82
2019-01-08T08:01:30.859Z,84.16
2019-01-08T08:02:31.458Z,84.72
2019-01-08T08:03:30.841Z,84.41
2019-01-08T08:04:32.209Z,84.78
2019-01-08T08:05:30.832Z,84.88
2019-01-08T08:06:30.931Z,84.37
2019-01-08T08:07:30.795Z,84.58
2019-01-08T08:08:30.781Z,84.58
2019-01-08T08:09:30.777Z,84.37
2019-01-08T08:10:32.483Z,84.16
2019-01-08T08:11:30.762Z,86.13
2019-01-08T08:12:31.146Z,85.86
2019-01-08T08:13:32.492Z,86.27
2019-01-08T08:14:30.716Z,86.17
2019-01-08T08:15:30.714Z,86.58
2019-01-08T08:16:31.628Z,87.10
2019-01-08T08:17:30.685Z,87.97
2019-01-08T08:18:31.357Z,88.03
2019-01-08T08:19:31.714Z,87.55
2019-01-08T08:20:30.667Z,88.59
2019-01-08T08:21:32.478Z,89.11
2019-01-08T08:22:30.628Z,89.83
2019-01-08T08:23:31.197Z,90.97
2019-01-08T08:24:30.611Z,90.60
2019-01-08T08:25:30.602Z,90.60
2019-01-08T08:26:30.610Z,89.04
2019-01-08T08:27:30.568Z,88.73
2019-01-08T08:28:31.019Z,89.15
2019-01-08T08:29:30.544Z,89.46
2019-01-08T08:30:30.551Z,90.39
2019-01-08T08:31:30.556Z,90.50
2019-01-08T08:32:31.502Z,90.50
2019-01-08T08:33:30.473Z,90.81
2019-01-08T08:34:32.257Z,89.67
2019-01-08T08:35:30.501Z,90.39
2019-01-08T08:36:30.483Z,91.22
2019-01-08T08:37:31.353Z,90.29
2019-01-08T08:38:30.441Z,90.29
2019-01-08T08:39:31.074Z,89.87
2019-01-08T08:40:30.437Z,89.36
2019-01-08T08:41:30.805Z,90.19
2019-01-08T08:42:30.395Z,90.29
2019-01-08T08:43:30.535Z,90.29
2019-01-08T08:44:30.375Z,90.19
2019-01-08T08:45:31.337Z,89.98
2019-01-08T08:46:30.358Z,90.39
2019-01-08T08:47:30.337Z,91.64
2019-01-08T08:48:30.338Z,92.11
2019-01-08T08:49:30.739Z,90.91
2019-01-08T08:50:30.318Z,91.85
2019-01-08T08:51:30.490Z,91.53
2019-01-08T08:52:30.290Z,91.02
2019-01-08T08:53:31.222Z,91.12
2019-01-08T08:54:30.263Z,92.30
2019-01-08T08:55:32.035Z,92.10
2019-01-08T08:56:30.240Z,91.47
2019-01-08T08:57:30.701Z,91.37
2019-01-08T08:58:30.222Z,90.81
2019-01-08T08:59:30.432Z,91.68
2019-01-08T09:00:30.314Z,91.02
2019-01-08T09:01:31.164Z,91.27
2019-01-08T09:02:30.174Z,91.47
2019-01-08T09:03:31.053Z,92.26
2019-01-08T09:04:30.144Z,91.95
2019-01-08T09:05:30.694Z,91.89
2019-01-08T09:06:30.124Z,90.95
2019-01-08T09:07:30.379Z,90.54
2019-01-08T09:08:30.145Z,91.16
2019-01-08T09:09:30.096Z,91.89
2019-01-08T09:10:30.096Z,92.41
2019-01-08T09:11:31.866Z,92.61
2019-01-08T09:12:30.058Z,91.27
2019-01-08T09:13:32.445Z,91.16
2019-01-08T09:14:30.038Z,90.95
2019-01-08T09:15:30.398Z,92.30
2019-01-08T09:16:30.010Z,92.20
2019-01-08T09:17:31.067Z,91.16
2019-01-08T09:18:29.990Z,91.27
2019-01-08T09:19:30.800Z,90.75
2019-01-08T09:20:29.980Z,91.27
2019-01-08T09:21:30.530Z,91.95
2019-01-08T09:22:30.069Z,92.36
2019-01-08T09:23:31.267Z,90.08
2019-01-08T09:24:29.991Z,90.39
2019-01-08T09:25:30.061Z,91.33
2019-01-08T09:26:29.896Z,91.33
2019-01-08T09:27:30.734Z,92.26
2019-01-08T09:28:29.874Z,92.11
2019-01-08T09:29:31.853Z,91.85
2019-01-08T09:30:29.874Z,90.50
2019-01-08T09:31:29.931Z,91.28
2019-01-08T09:32:30.567Z,92.36
2019-01-08T09:33:29.819Z,91.53
2019-01-08T09:34:30.317Z,90.19
2019-01-08T09:35:29.830Z,90.25
2019-01-08T09:36:29.787Z,90.45
2019-01-08T09:37:29.777Z,89.62
2019-01-08T09:38:30.780Z,88.90
2019-01-08T09:53:48.495Z,88.71
2019-01-08T09:54:48.464Z,87.99
2019-01-08T09:55:48.796Z,88.61
2019-01-08T09:56:48.451Z,88.76
2019-01-08T09:57:49.496Z,88.65
2019-01-08T09:58:57.018Z,87.88
2019-01-08T09:59:48.455Z,88.61
2019-01-08T10:00:48.405Z,88.30
2019-01-08T10:01:48.381Z,87.78
2019-01-08T10:02:48.353Z,86.96
2019-01-08T10:03:48.331Z,85.61
2019-01-08T10:04:48.321Z,86.71
2019-01-08T10:05:48.356Z,86.96
2019-01-08T10:06:48.305Z,86.85
2019-01-08T10:07:48.286Z,85.78
2019-01-08T10:08:48.275Z,86.50
2019-01-08T10:09:48.264Z,85.92
2019-01-08T10:10:48.274Z,85.71
2019-01-08T10:11:48.253Z,87.74
2019-01-08T10:12:48.238Z,86.65
2019-01-08T10:13:48.242Z,86.40
2019-01-08T10:14:48.210Z,86.50
2019-01-08T10:15:48.217Z,86.60
2019-01-08T10:16:48.197Z,87.47
2019-01-08T10:17:48.196Z,87.47
2019-01-08T10:18:48.168Z,86.65
2019-01-08T10:19:48.168Z,87.68
2019-01-08T10:20:48.159Z,87.47
2019-01-08T10:21:48.129Z,87.68
2019-01-08T10:22:48.152Z,86.75
2019-01-08T10:23:48.115Z,86.13
2019-01-08T10:24:48.108Z,86.09
2019-01-08T10:25:48.108Z,86.40
2019-01-08T10:26:48.083Z,87.23
2019-01-08T10:27:48.082Z,86.13
2019-01-08T10:28:48.056Z,86.23
2019-01-08T10:29:48.097Z,86.33
2019-01-08T10:30:48.207Z,86.75
2019-01-08T10:31:48.029Z,87.68
2019-01-08T10:32:48.009Z,87.68
2019-01-08T10:33:48.099Z,85.92
2019-01-08T10:34:48.014Z,86.54
2019-01-08T10:35:48.009Z,87.57
2019-01-08T10:36:47.991Z,87.78
2019-01-08T10:37:47.971Z,87.88
2019-01-08T10:38:50.482Z,87.64
2019-01-08T10:39:47.971Z,86.71
2019-01-08T10:40:47.930Z,87.68
2019-01-08T10:41:47.929Z,87.95
2019-01-08T10:42:47.929Z,87.85
2019-01-08T10:43:47.895Z,87.99
2019-01-08T10:44:47.881Z,88.36
2019-01-08T10:45:47.865Z,86.09
2019-01-08T10:46:47.869Z,86.09
2019-01-08T10:47:47.857Z,86.29
2019-01-08T10:48:47.852Z,85.88
2019-01-08T10:49:47.844Z,87.02
2019-01-08T10:50:47.812Z,86.19
2019-01-08T10:51:47.810Z,86.60
2019-01-08T10:52:47.786Z,88.36
2019-01-08T10:53:47.769Z,85.88
2019-01-08T10:54:47.760Z,87.12
2019-01-08T10:55:47.763Z,85.88
2019-01-08T10:56:47.762Z,86.29
2019-01-08T10:57:47.739Z,85.78
2019-01-08T10:58:47.723Z,85.88
2019-01-08T10:59:47.715Z,86.81
2019-01-08T11:00:47.741Z,86.50
2019-01-08T11:01:47.737Z,86.71
2019-01-08T11:02:47.674Z,85.99
2019-01-08T11:03:47.672Z,86.81
2019-01-08T11:04:47.667Z,87.74
2019-01-08T11:05:47.681Z,87.85
2019-01-08T11:06:47.670Z,84.50
2019-01-08T11:07:47.625Z,84.64
2019-01-08T11:08:47.622Z,85.32
2019-01-08T11:09:47.735Z,86.05
2019-01-08T11:10:47.675Z,85.74
2019-01-08T11:11:47.606Z,85.53
2019-01-08T11:12:47.582Z,85.57
2019-01-08T11:13:47.555Z,87.91
2019-01-08T11:14:47.556Z,85.88
2019-01-08T11:15:47.530Z,84.95
2019-01-08T11:16:47.548Z,85.78
2019-01-08T11:17:47.518Z,86.50
2019-01-08T11:18:47.492Z,86.81
2019-01-08T11:19:47.499Z,86.77
2019-01-08T11:20:47.470Z,86.05
2019-01-08T11:21:47.474Z,83.98
2019-01-08T11:22:47.446Z,84.08
2019-01-08T11:23:47.441Z,84.08
2019-01-08T11:24:47.430Z,85.11
2019-01-08T11:25:47.447Z,84.81
2019-01-08T11:26:47.422Z,85.42
2019-01-08T11:27:47.408Z,84.81
2019-01-08T11:28:47.407Z,84.81
2019-01-08T11:29:47.381Z,86.05
2019-01-08T11:30:47.396Z,85.63
2019-01-08T11:31:48.914Z,85.74
2019-01-08T11:32:47.336Z,84.81
2019-01-08T11:33:47.339Z,85.74
2019-01-08T11:34:47.323Z,85.88
2019-01-08T11:35:47.309Z,85.88
2019-01-08T11:36:47.317Z,86.50
2019-01-08T11:37:47.288Z,87.02
2019-01-08T11:38:47.285Z,86.19
2019-01-08T11:39:47.415Z,86.60
2019-01-08T11:40:47.291Z,86.09
2019-01-08T11:41:47.257Z,86.09
2019-01-08T11:42:47.269Z,84.95
2019-01-08T11:43:47.249Z,85.78
2019-01-08T11:44:47.211Z,87.70
2019-01-08T11:45:47.226Z,87.81
2019-01-08T11:46:47.223Z,84.29
2019-01-08T11:47:47.166Z,85.99
2019-01-08T11:48:47.195Z,86.05
2019-01-08T11:49:47.184Z,85.42
2019-01-08T11:50:47.180Z,85.63
2019-01-08T11:51:47.208Z,84.91
2019-01-08T11:52:48.015Z,85.99
2019-01-08T11:53:47.112Z,85.88
2019-01-08T11:54:47.108Z,85.36
2019-01-08T11:55:47.078Z,86.40
2019-01-08T11:56:47.097Z,85.88
2019-01-08T11:57:47.057Z,86.29
2019-01-08T11:58:47.039Z,85.78
2019-01-08T11:59:48.260Z,86.60
2019-01-08T12:00:47.018Z,87.70
2019-01-08T12:01:47.023Z,85.94
2019-01-08T12:02:47.865Z,86.01
2019-01-08T12:03:47.009Z,85.28
2019-01-08T12:04:46.977Z,84.25
2019-01-08T12:05:46.966Z,83.11
2019-01-08T12:06:46.977Z,85.60
2019-01-08T12:07:46.943Z,85.80
2019-01-08T12:08:46.931Z,84.52
2019-01-08T12:09:46.977Z,83.63
2019-01-08T12:10:46.910Z,84.15
2019-01-08T12:11:47.067Z,82.80
2019-01-08T12:12:46.891Z,83.22
2019-01-08T12:13:46.901Z,85.28
2019-01-08T12:14:46.867Z,84.66
2019-01-08T12:15:46.883Z,83.73
2019-01-08T12:16:46.875Z,85.28
2019-01-08T12:17:46.826Z,84.05
2019-01-08T12:18:47.043Z,84.05
2019-01-08T12:19:46.815Z,84.87
2019-01-08T12:20:46.805Z,85.70
2019-01-08T12:21:46.809Z,85.08
2019-01-08T12:22:46.874Z,84.25
2019-01-08T12:23:46.766Z,84.77
2019-01-08T12:24:46.749Z,86.32
2019-01-08T12:25:46.742Z,84.25
2019-01-08T12:26:46.932Z,83.84
2019-01-08T12:27:46.726Z,84.36
2019-01-08T12:28:46.806Z,83.84
2019-01-08T12:29:46.697Z,84.15
2019-01-08T12:30:46.706Z,84.15
2019-01-08T12:31:46.693Z,84.05
2019-01-08T12:32:46.665Z,82.39
2019-01-08T12:33:46.662Z,83.73
2019-01-08T12:34:46.647Z,84.15
2019-01-08T12:35:46.628Z,83.94
2019-01-08T12:36:46.669Z,83.22
2019-01-08T12:37:46.610Z,84.45
2019-01-08T12:38:46.600Z,83.84
2019-01-08T12:39:46.591Z,83.11
2019-01-08T12:40:46.622Z,84.15
2019-01-08T12:41:46.593Z,83.36
2019-01-08T12:42:46.589Z,83.22
2019-01-08T12:43:46.540Z,82.60
2019-01-08T12:44:46.552Z,82.70
2019-01-08T12:45:46.514Z,84.15
2019-01-08T12:46:46.510Z,84.05
2019-01-08T12:47:46.514Z,85.70
2019-01-08T12:48:46.491Z,82.90
2019-01-08T12:49:46.635Z,83.56
2019-01-08T12:50:46.463Z,83.84
2019-01-08T12:51:46.513Z,83.84
2019-01-08T12:52:46.511Z,83.25
2019-01-08T12:53:46.429Z,84.19
2019-01-08T12:54:46.415Z,83.67
2019-01-08T12:55:46.401Z,83.87
2019-01-08T12:56:46.394Z,83.77
2019-01-08T12:57:46.409Z,83.56
2019-01-08T12:58:46.388Z,83.32
2019-01-08T12:59:46.440Z,84.66
2019-01-08T13:00:46.355Z,84.60
2019-01-08T13:01:46.357Z,84.50
2019-01-08T13:02:46.340Z,84.29
2019-01-08T13:03:46.321Z,84.91
2019-01-08T13:04:46.317Z,84.91
2019-01-08T13:05:46.293Z,84.87
2019-01-08T13:06:46.284Z,84.50